Terminal Aerodrome Forecast
Issued by NWS

Home | Current Version | Previous Version | Text Only | Print | Product List | Glossary On
Versions: 1 2 3 4 5 6 7 8 9 10 11 12 13 14 15 16 17 18 19 20 21 22 23 24 25 26 27 28 29 30 31 32 33 34 35
000
FTUS44 KOUN 281123
TAFPNC
TAF
KPNC 281123Z 2812/2912 14008KT P6SM VCTS FEW015 OVC040CB
      TEMPO 2812/2814 5SM TSRA BR OVC015CB
     FM281500 15010KT P6SM FEW025 BKN150
     FM290800 15009KT P6SM VCTS SCT015 OVC050CB=

USA.gov is the U.S. government's official web portal to all federal, state and local government web resources and services.